sensor_id;sensor_type;location;lat;lon;timestamp;pressure;altitude;pressure_sealevel;temperature;humidity
74334;BME280;62753;40.394;-80.022;2023-04-05T00:00:18;97211.72;;;28.24;25.46
74334;BME280;62753;40.394;-80.022;2023-04-05T00:02:42;97210.84;;;27.66;25.80
74334;BME280;62753;40.394;-80.022;2023-04-05T00:05:09;97206.13;;;27.62;25.88
74334;BME280;62753;40.394;-80.022;2023-04-05T00:07:34;97206.83;;;27.74;25.55
74334;BME280;62753;40.394;-80.022;2023-04-05T00:10:00;97203.51;;;27.60;25.76
74334;BME280;62753;40.394;-80.022;2023-04-05T00:12:25;97200.76;;;27.65;25.66
74334;BME280;62753;40.394;-80.022;2023-04-05T00:14:50;97200.11;;;28.07;25.71
74334;BME280;62753;40.394;-80.022;2023-04-05T00:17:16;97202.28;;;27.32;26.20
74334;BME280;62753;40.394;-80.022;2023-04-05T00:19:41;97205.95;;;27.36;26.53
74334;BME280;62753;40.394;-80.022;2023-04-05T00:22:07;97204.64;;;27.43;26.56
74334;BME280;62753;40.394;-80.022;2023-04-05T00:24:32;97201.38;;;27.29;26.69
74334;BME280;62753;40.394;-80.022;2023-04-05T00:26:58;97206.66;;;26.99;27.08
74334;BME280;62753;40.394;-80.022;2023-04-05T00:29:23;97211.76;;;26.68;28.21
74334;BME280;62753;40.394;-80.022;2023-04-05T00:31:49;97214.36;;;27.11;27.41
74334;BME280;62753;40.394;-80.022;2023-04-05T00:34:14;97215.34;;;27.12;27.43
74334;BME280;62753;40.394;-80.022;2023-04-05T00:36:40;97218.55;;;27.29;27.04
74334;BME280;62753;40.394;-80.022;2023-04-05T00:39:05;97220.80;;;27.18;27.56
74334;BME280;62753;40.394;-80.022;2023-04-05T00:41:31;97228.15;;;27.38;27.50
74334;BME280;62753;40.394;-80.022;2023-04-05T00:43:56;97232.76;;;27.50;27.02
74334;BME280;62753;40.394;-80.022;2023-04-05T00:46:22;97240.49;;;27.24;27.04
74334;BME280;62753;40.394;-80.022;2023-04-05T00:48:48;97244.09;;;26.93;26.96
74334;BME280;62753;40.394;-80.022;2023-04-05T00:51:13;97243.77;;;26.83;27.22
74334;BME280;62753;40.394;-80.022;2023-04-05T00:53:39;97248.07;;;26.87;27.09
74334;BME280;62753;40.394;-80.022;2023-04-05T00:56:05;97250.61;;;27.07;27.03
74334;BME280;62753;40.394;-80.022;2023-04-05T00:58:29;97251.95;;;27.16;26.88
74334;BME280;62753;40.394;-80.022;2023-04-05T01:01:01;97253.21;;;27.24;27.34
74334;BME280;62753;40.394;-80.022;2023-04-05T01:03:20;97254.36;;;26.37;27.66
74334;BME280;62753;40.394;-80.022;2023-04-05T01:05:48;97258.27;;;26.71;27.59
74334;BME280;62753;40.394;-80.022;2023-04-05T01:08:15;97258.92;;;26.90;27.30
74334;BME280;62753;40.394;-80.022;2023-04-05T01:10:41;97254.85;;;27.10;27.30
74334;BME280;62753;40.394;-80.022;2023-04-05T01:13:02;97255.80;;;26.66;27.83
74334;BME280;62753;40.394;-80.022;2023-04-05T01:15:27;97257.46;;;26.29;28.30
74334;BME280;62753;40.394;-80.022;2023-04-05T01:17:52;97266.52;;;26.77;28.00
74334;BME280;62753;40.394;-80.022;2023-04-05T01:20:18;97270.70;;;26.95;27.77
74334;BME280;62753;40.394;-80.022;2023-04-05T01:23:02;97271.06;;;27.00;27.91
74334;BME280;62753;40.394;-80.022;2023-04-05T01:25:21;97269.54;;;26.92;27.82
74334;BME280;62753;40.394;-80.022;2023-04-05T01:27:46;97268.92;;;26.57;27.98
74334;BME280;62753;40.394;-80.022;2023-04-05T01:30:03;97267.60;;;26.17;28.51
74334;BME280;62753;40.394;-80.022;2023-04-05T01:32:33;97267.29;;;26.52;28.42
74334;BME280;62753;40.394;-80.022;2023-04-05T01:34:54;97265.70;;;26.67;28.12
74334;BME280;62753;40.394;-80.022;2023-04-05T01:37:19;97260.76;;;26.88;27.99
74334;BME280;62753;40.394;-80.022;2023-04-05T01:39:42;97261.73;;;26.91;28.23
74334;BME280;62753;40.394;-80.022;2023-04-05T01:42:07;97267.62;;;26.57;28.37
74334;BME280;62753;40.394;-80.022;2023-04-05T01:44:32;97266.90;;;26.27;28.69
74334;BME280;62753;40.394;-80.022;2023-04-05T01:46:57;97264.62;;;26.53;28.34
74334;BME280;62753;40.394;-80.022;2023-04-05T01:49:24;97263.24;;;26.35;28.65
74334;BME280;62753;40.394;-80.022;2023-04-05T01:51:50;97258.53;;;26.12;29.10
74334;BME280;62753;40.394;-80.022;2023-04-05T01:54:15;97258.34;;;26.15;29.03
74334;BME280;62753;40.394;-80.022;2023-04-05T01:56:40;97262.66;;;26.38;29.07
74334;BME280;62753;40.394;-80.022;2023-04-05T01:59:05;97264.03;;;26.12;29.91
74334;BME280;62753;40.394;-80.022;2023-04-05T02:01:32;97266.27;;;25.19;30.44
74334;BME280;62753;40.394;-80.022;2023-04-05T02:03:57;97269.40;;;25.30;30.64
74334;BME280;62753;40.394;-80.022;2023-04-05T02:06:22;97259.01;;;25.35;30.71
74334;BME280;62753;40.394;-80.022;2023-04-05T02:08:47;97264.01;;;25.30;30.86
74334;BME280;62753;40.394;-80.022;2023-04-05T02:11:13;97263.46;;;25.02;31.52
74334;BME280;62753;40.394;-80.022;2023-04-05T02:13:39;97260.52;;;24.76;31.68
74334;BME280;62753;40.394;-80.022;2023-04-05T02:16:04;97257.47;;;25.11;31.23
74334;BME280;62753;40.394;-80.022;2023-04-05T02:18:29;97256.79;;;25.15;32.05
74334;BME280;62753;40.394;-80.022;2023-04-05T02:21:00;97260.05;;;24.14;32.43
74334;BME280;62753;40.394;-80.022;2023-04-05T02:23:21;97253.46;;;24.75;31.72
74334;BME280;62753;40.394;-80.022;2023-04-05T02:25:47;97258.14;;;25.38;30.92
74334;BME280;62753;40.394;-80.022;2023-04-05T02:28:12;97264.47;;;25.21;30.68
74334;BME280;62753;40.394;-80.022;2023-04-05T02:30:38;97271.18;;;25.45;30.57
74334;BME280;62753;40.394;-80.022;2023-04-05T02:33:03;97270.08;;;25.31;30.53
74334;BME280;62753;40.394;-80.022;2023-04-05T02:35:28;97269.34;;;25.83;29.64
74334;BME280;62753;40.394;-80.022;2023-04-05T02:37:54;97269.58;;;25.79;29.31
74334;BME280;62753;40.394;-80.022;2023-04-05T02:40:19;97270.21;;;25.74;29.49
74334;BME280;62753;40.394;-80.022;2023-04-05T02:42:44;97274.31;;;26.06;29.36
74334;BME280;62753;40.394;-80.022;2023-04-05T02:45:10;97278.08;;;26.03;29.14
74334;BME280;62753;40.394;-80.022;2023-04-05T02:47:35;97279.78;;;26.25;28.90
74334;BME280;62753;40.394;-80.022;2023-04-05T02:50:01;97281.02;;;26.44;28.61
74334;BME280;62753;40.394;-80.022;2023-04-05T02:52:26;97281.12;;;25.77;29.60
74334;BME280;62753;40.394;-80.022;2023-04-05T02:54:51;97282.05;;;25.15;30.26
74334;BME280;62753;40.394;-80.022;2023-04-05T02:57:20;97282.94;;;25.41;30.52
74334;BME280;62753;40.394;-80.022;2023-04-05T02:59:43;97278.93;;;24.42;31.67
74334;BME280;62753;40.394;-80.022;2023-04-05T03:02:09;97266.00;;;23.98;32.88
74334;BME280;62753;40.394;-80.022;2023-04-05T03:04:33;97265.70;;;23.56;33.67
74334;BME280;62753;40.394;-80.022;2023-04-05T03:06:59;97267.79;;;22.83;34.52
74334;BME280;62753;40.394;-80.022;2023-04-05T03:09:25;97265.08;;;22.50;35.65
74334;BME280;62753;40.394;-80.022;2023-04-05T03:11:50;97257.10;;;22.30;36.58
74334;BME280;62753;40.394;-80.022;2023-04-05T03:14:15;97253.94;;;22.14;37.26
74334;BME280;62753;40.394;-80.022;2023-04-05T03:16:40;97259.68;;;21.88;36.88
74334;BME280;62753;40.394;-80.022;2023-04-05T03:19:06;97263.59;;;22.75;35.45
74334;BME280;62753;40.394;-80.022;2023-04-05T03:21:31;97263.82;;;23.18;34.72
74334;BME280;62753;40.394;-80.022;2023-04-05T03:23:57;97257.44;;;23.58;34.39
74334;BME280;62753;40.394;-80.022;2023-04-05T03:26:22;97251.67;;;23.56;34.82
74334;BME280;62753;40.394;-80.022;2023-04-05T03:28:47;97246.38;;;23.35;34.16
74334;BME280;62753;40.394;-80.022;2023-04-05T03:31:13;97242.16;;;23.44;34.30
74334;BME280;62753;40.394;-80.022;2023-04-05T03:33:38;97239.26;;;22.51;35.74
74334;BME280;62753;40.394;-80.022;2023-04-05T03:36:04;97239.08;;;22.34;36.40
74334;BME280;62753;40.394;-80.022;2023-04-05T03:38:29;97234.86;;;21.59;38.32
74334;BME280;62753;40.394;-80.022;2023-04-05T03:40:55;97235.52;;;21.01;39.19
74334;BME280;62753;40.394;-80.022;2023-04-05T03:43:21;97234.96;;;21.51;38.53
74334;BME280;62753;40.394;-80.022;2023-04-05T03:45:47;97234.35;;;21.86;38.03
74334;BME280;62753;40.394;-80.022;2023-04-05T03:48:12;97235.89;;;21.90;37.44
74334;BME280;62753;40.394;-80.022;2023-04-05T03:50:38;97238.38;;;22.37;37.24
74334;BME280;62753;40.394;-80.022;2023-04-05T03:53:03;97238.13;;;22.26;36.62
74334;BME280;62753;40.394;-80.022;2023-04-05T03:55:34;97235.42;;;22.41;36.62
74334;BME280;62753;40.394;-80.022;2023-04-05T03:57:54;97232.26;;;22.52;36.20
74334;BME280;62753;40.394;-80.022;2023-04-05T04:00:20;97234.08;;;22.75;36.27
74334;BME280;62753;40.394;-80.022;2023-04-05T04:02:46;97237.22;;;22.53;35.83
74334;BME280;62753;40.394;-80.022;2023-04-05T04:05:10;97237.04;;;22.45;36.50
74334;BME280;62753;40.394;-80.022;2023-04-05T04:07:36;97236.29;;;21.72;37.45
74334;BME280;62753;40.394;-80.022;2023-04-05T04:10:01;97233.78;;;22.00;37.89
74334;BME280;62753;40.394;-80.022;2023-04-05T04:12:26;97231.89;;;21.96;37.72
74334;BME280;62753;40.394;-80.022;2023-04-05T04:14:52;97227.66;;;21.71;38.13
74334;BME280;62753;40.394;-80.022;2023-04-05T04:17:25;97226.45;;;21.38;39.67
74334;BME280;62753;40.394;-80.022;2023-04-05T04:19:43;97221.46;;;20.25;41.10
74334;BME280;62753;40.394;-80.022;2023-04-05T04:22:09;97222.79;;;20.42;41.02
74334;BME280;62753;40.394;-80.022;2023-04-05T04:24:35;97226.15;;;20.31;40.96
74334;BME280;62753;40.394;-80.022;2023-04-05T04:27:01;97223.68;;;20.59;40.23
74334;BME280;62753;40.394;-80.022;2023-04-05T04:29:26;97222.21;;;20.46;40.32
74334;BME280;62753;40.394;-80.022;2023-04-05T04:31:52;97222.33;;;20.46;41.05
74334;BME280;62753;40.394;-80.022;2023-04-05T04:34:17;97216.45;;;20.64;40.87
74334;BME280;62753;40.394;-80.022;2023-04-05T04:36:43;97213.18;;;20.71;40.26
74334;BME280;62753;40.394;-80.022;2023-04-05T04:39:08;97212.93;;;20.73;40.40
74334;BME280;62753;40.394;-80.022;2023-04-05T04:41:34;97213.76;;;20.39;41.05
74334;BME280;62753;40.394;-80.022;2023-04-05T04:44:00;97211.71;;;20.16;41.36
74334;BME280;62753;40.394;-80.022;2023-04-05T04:46:25;97208.04;;;20.41;41.01
74334;BME280;62753;40.394;-80.022;2023-04-05T04:48:51;97206.94;;;20.11;41.77
74334;BME280;62753;40.394;-80.022;2023-04-05T04:51:16;97202.50;;;20.24;42.02
74334;BME280;62753;40.394;-80.022;2023-04-05T04:53:47;97196.18;;;19.86;43.11
74334;BME280;62753;40.394;-80.022;2023-04-05T04:56:08;97196.66;;;19.53;43.51
74334;BME280;62753;40.394;-80.022;2023-04-05T04:58:32;97202.79;;;19.98;43.75
74334;BME280;62753;40.394;-80.022;2023-04-05T05:00:58;97199.68;;;19.66;43.48
74334;BME280;62753;40.394;-80.022;2023-04-05T05:03:23;97196.75;;;19.69;42.92
74334;BME280;62753;40.394;-80.022;2023-04-05T05:05:49;97203.45;;;20.17;42.14
74334;BME280;62753;40.394;-80.022;2023-04-05T05:08:14;97205.45;;;19.65;42.84
74334;BME280;62753;40.394;-80.022;2023-04-05T05:10:39;97208.09;;;19.86;43.05
74334;BME280;62753;40.394;-80.022;2023-04-05T05:13:05;97210.58;;;19.99;42.63
74334;BME280;62753;40.394;-80.022;2023-04-05T05:15:30;97207.39;;;19.67;43.16
74334;BME280;62753;40.394;-80.022;2023-04-05T05:17:56;97202.73;;;19.98;43.46
74334;BME280;62753;40.394;-80.022;2023-04-05T05:20:21;97197.54;;;19.30;43.94
74334;BME280;62753;40.394;-80.022;2023-04-05T05:22:46;97193.41;;;19.09;44.13
74334;BME280;62753;40.394;-80.022;2023-04-05T05:25:11;97190.23;;;19.39;43.96
74334;BME280;62753;40.394;-80.022;2023-04-05T05:27:37;97193.78;;;19.16;44.16
74334;BME280;62753;40.394;-80.022;2023-04-05T05:30:03;97192.58;;;19.48;43.41
74334;BME280;62753;40.394;-80.022;2023-04-05T05:32:28;97197.43;;;20.09;42.22
74334;BME280;62753;40.394;-80.022;2023-04-05T05:34:53;97199.42;;;20.93;40.39
74334;BME280;62753;40.394;-80.022;2023-04-05T05:37:18;97208.71;;;21.02;40.43
74334;BME280;62753;40.394;-80.022;2023-04-05T05:39:44;97208.21;;;20.14;42.21
74334;BME280;62753;40.394;-80.022;2023-04-05T05:42:09;97205.45;;;19.52;42.87
74334;BME280;62753;40.394;-80.022;2023-04-05T05:44:35;97197.71;;;19.43;43.82
74334;BME280;62753;40.394;-80.022;2023-04-05T05:47:00;97192.73;;;18.84;44.99
74334;BME280;62753;40.394;-80.022;2023-04-05T05:49:26;97188.81;;;19.20;45.01
74334;BME280;62753;40.394;-80.022;2023-04-05T05:51:51;97187.04;;;19.57;43.77
74334;BME280;62753;40.394;-80.022;2023-04-05T05:54:16;97186.54;;;19.91;42.33
74334;BME280;62753;40.394;-80.022;2023-04-05T05:56:42;97185.31;;;19.44;42.73
74334;BME280;62753;40.394;-80.022;2023-04-05T05:59:07;97181.48;;;19.92;42.88
74334;BME280;62753;40.394;-80.022;2023-04-05T06:01:33;97180.48;;;20.72;41.45
74334;BME280;62753;40.394;-80.022;2023-04-05T06:03:59;97180.46;;;20.51;41.25
74334;BME280;62753;40.394;-80.022;2023-04-05T06:06:24;97179.41;;;20.67;40.06
74334;BME280;62753;40.394;-80.022;2023-04-05T06:08:49;97182.30;;;20.74;40.01
74334;BME280;62753;40.394;-80.022;2023-04-05T06:11:17;97184.59;;;21.12;39.50
74334;BME280;62753;40.394;-80.022;2023-04-05T06:13:41;97187.06;;;21.26;38.44
74334;BME280;62753;40.394;-80.022;2023-04-05T06:16:06;97192.11;;;21.85;38.03
74334;BME280;62753;40.394;-80.022;2023-04-05T06:18:31;97194.50;;;21.47;37.79
74334;BME280;62753;40.394;-80.022;2023-04-05T06:20:57;97189.17;;;21.35;38.11
74334;BME280;62753;40.394;-80.022;2023-04-05T06:23:23;97195.02;;;22.44;36.45
74334;BME280;62753;40.394;-80.022;2023-04-05T06:25:48;97194.14;;;21.87;37.56
74334;BME280;62753;40.394;-80.022;2023-04-05T06:28:13;97185.77;;;21.42;38.30
74334;BME280;62753;40.394;-80.022;2023-04-05T06:30:39;97183.90;;;20.91;38.84
74334;BME280;62753;40.394;-80.022;2023-04-05T06:33:05;97182.25;;;20.92;39.06
74334;BME280;62753;40.394;-80.022;2023-04-05T06:35:31;97184.02;;;20.36;39.86
74334;BME280;62753;40.394;-80.022;2023-04-05T06:37:56;97183.79;;;21.12;39.20
74334;BME280;62753;40.394;-80.022;2023-04-05T06:40:22;97184.15;;;20.92;39.24
74334;BME280;62753;40.394;-80.022;2023-04-05T06:42:48;97178.20;;;20.64;40.60
74334;BME280;62753;40.394;-80.022;2023-04-05T06:45:13;97179.35;;;19.65;42.30
74334;BME280;62753;40.394;-80.022;2023-04-05T06:47:39;97178.29;;;20.63;40.11
74334;BME280;62753;40.394;-80.022;2023-04-05T06:50:06;97171.80;;;20.83;40.05
74334;BME280;62753;40.394;-80.022;2023-04-05T06:52:30;97169.60;;;20.19;41.01
74334;BME280;62753;40.394;-80.022;2023-04-05T06:54:54;97161.83;;;20.47;41.44
74334;BME280;62753;40.394;-80.022;2023-04-05T06:57:20;97162.70;;;19.95;41.96
74334;BME280;62753;40.394;-80.022;2023-04-05T06:59:46;97155.55;;;20.33;41.10
74334;BME280;62753;40.394;-80.022;2023-04-05T07:02:11;97155.28;;;20.19;41.55
74334;BME280;62753;40.394;-80.022;2023-04-05T07:04:37;97155.35;;;20.48;41.08
74334;BME280;62753;40.394;-80.022;2023-04-05T07:07:02;97148.67;;;20.33;40.94
74334;BME280;62753;40.394;-80.022;2023-04-05T07:09:27;97139.47;;;20.10;41.09
74334;BME280;62753;40.394;-80.022;2023-04-05T07:11:53;97143.69;;;20.33;41.46
74334;BME280;62753;40.394;-80.022;2023-04-05T07:14:18;97150.33;;;20.00;42.03
74334;BME280;62753;40.394;-80.022;2023-04-05T07:16:44;97152.10;;;20.21;42.20
74334;BME280;62753;40.394;-80.022;2023-04-05T07:19:09;97151.94;;;19.92;42.67
74334;BME280;62753;40.394;-80.022;2023-04-05T07:21:35;97148.75;;;19.66;43.48
74334;BME280;62753;40.394;-80.022;2023-04-05T07:24:01;97147.90;;;19.41;43.74
74334;BME280;62753;40.394;-80.022;2023-04-05T07:26:26;97148.59;;;19.54;43.52
74334;BME280;62753;40.394;-80.022;2023-04-05T07:28:51;97146.42;;;19.62;43.45
74334;BME280;62753;40.394;-80.022;2023-04-05T07:31:16;97144.88;;;19.69;43.94
74334;BME280;62753;40.394;-80.022;2023-04-05T07:33:42;97150.41;;;19.97;42.89
74334;BME280;62753;40.394;-80.022;2023-04-05T07:36:08;97150.27;;;19.73;42.64
74334;BME280;62753;40.394;-80.022;2023-04-05T07:38:32;97152.33;;;19.35;43.68
74334;BME280;62753;40.394;-80.022;2023-04-05T07:40:58;97154.16;;;19.38;43.64
74334;BME280;62753;40.394;-80.022;2023-04-05T07:43:23;97152.00;;;19.25;44.23
74334;BME280;62753;40.394;-80.022;2023-04-05T07:45:49;97158.28;;;19.41;43.67
74334;BME280;62753;40.394;-80.022;2023-04-05T07:48:19;97154.73;;;19.47;43.88
74334;BME280;62753;40.394;-80.022;2023-04-05T07:50:41;97157.08;;;19.50;43.72
74334;BME280;62753;40.394;-80.022;2023-04-05T07:53:05;97161.01;;;19.43;43.53
74334;BME280;62753;40.394;-80.022;2023-04-05T07:55:31;97163.08;;;19.72;43.01
74334;BME280;62753;40.394;-80.022;2023-04-05T07:57:56;97148.90;;;19.03;44.84
74334;BME280;62753;40.394;-80.022;2023-04-05T08:00:21;97152.20;;;19.47;44.08
74334;BME280;62753;40.394;-80.022;2023-04-05T08:02:47;97155.63;;;19.84;43.00
74334;BME280;62753;40.394;-80.022;2023-04-05T08:05:12;97155.82;;;19.96;41.94
74334;BME280;62753;40.394;-80.022;2023-04-05T08:07:37;97152.85;;;20.32;41.24
74334;BME280;62753;40.394;-80.022;2023-04-05T08:10:03;97153.50;;;19.96;41.93
74334;BME280;62753;40.394;-80.022;2023-04-05T08:12:29;97148.15;;;20.04;42.01
74334;BME280;62753;40.394;-80.022;2023-04-05T08:14:53;97152.59;;;19.99;42.03
74334;BME280;62753;40.394;-80.022;2023-04-05T08:17:19;97157.35;;;19.85;42.56
74334;BME280;62753;40.394;-80.022;2023-04-05T08:19:44;97156.05;;;20.27;41.54
74334;BME280;62753;40.394;-80.022;2023-04-05T08:22:10;97158.35;;;20.10;42.33
74334;BME280;62753;40.394;-80.022;2023-04-05T08:24:36;97158.95;;;20.13;42.26
74334;BME280;62753;40.394;-80.022;2023-04-05T08:27:06;97155.90;;;19.97;42.19
74334;BME280;62753;40.394;-80.022;2023-04-05T08:29:27;97157.14;;;20.10;41.58
74334;BME280;62753;40.394;-80.022;2023-04-05T08:31:55;97155.56;;;20.78;40.63
74334;BME280;62753;40.394;-80.022;2023-04-05T08:34:18;97154.34;;;20.38;41.72
74334;BME280;62753;40.394;-80.022;2023-04-05T08:36:44;97155.76;;;20.64;40.71
74334;BME280;62753;40.394;-80.022;2023-04-05T08:39:09;97156.11;;;20.62;40.64
74334;BME280;62753;40.394;-80.022;2023-04-05T08:41:36;97153.49;;;20.78;40.40
74334;BME280;62753;40.394;-80.022;2023-04-05T08:44:02;97157.76;;;20.21;41.63
74334;BME280;62753;40.394;-80.022;2023-04-05T08:46:26;97159.79;;;19.75;42.80
74334;BME280;62753;40.394;-80.022;2023-04-05T08:48:51;97158.31;;;19.70;42.32
74334;BME280;62753;40.394;-80.022;2023-04-05T08:51:18;97157.09;;;19.97;42.15
74334;BME280;62753;40.394;-80.022;2023-04-05T08:53:42;97154.13;;;20.85;40.93
74334;BME280;62753;40.394;-80.022;2023-04-05T08:56:08;97153.60;;;20.40;40.96
74334;BME280;62753;40.394;-80.022;2023-04-05T08:58:34;97159.07;;;20.62;41.52
74334;BME280;62753;40.394;-80.022;2023-04-05T09:00:59;97159.29;;;20.05;41.38
74334;BME280;62753;40.394;-80.022;2023-04-05T09:03:25;97165.48;;;20.22;41.04
74334;BME280;62753;40.394;-80.022;2023-04-05T09:05:50;97168.82;;;20.24;42.20
74334;BME280;62753;40.394;-80.022;2023-04-05T09:08:14;97167.39;;;20.70;40.27
74334;BME280;62753;40.394;-80.022;2023-04-05T09:10:40;97173.17;;;20.73;41.00
74334;BME280;62753;40.394;-80.022;2023-04-05T09:13:05;97175.95;;;20.26;41.41
74334;BME280;62753;40.394;-80.022;2023-04-05T09:15:30;97180.05;;;20.00;42.33
74334;BME280;62753;40.394;-80.022;2023-04-05T09:17:56;97176.99;;;20.15;41.83
74334;BME280;62753;40.394;-80.022;2023-04-05T09:20:21;97184.39;;;19.89;42.47
74334;BME280;62753;40.394;-80.022;2023-04-05T09:22:46;97183.21;;;19.86;42.22
74334;BME280;62753;40.394;-80.022;2023-04-05T09:30:08;97180.85;;;20.11;41.79
74334;BME280;62753;40.394;-80.022;2023-04-05T09:32:27;97181.45;;;20.44;41.60
74334;BME280;62753;40.394;-80.022;2023-04-05T09:34:53;97180.88;;;20.43;41.62
74334;BME280;62753;40.394;-80.022;2023-04-05T09:37:19;97186.76;;;20.15;42.53
74334;BME280;62753;40.394;-80.022;2023-04-05T09:39:44;97184.76;;;20.25;42.18
74334;BME280;62753;40.394;-80.022;2023-04-05T09:42:10;97183.20;;;20.14;42.80
74334;BME280;62753;40.394;-80.022;2023-04-05T09:44:47;97180.43;;;19.57;43.74
74334;BME280;62753;40.394;-80.022;2023-04-05T09:49:31;97173.35;;;20.45;41.72
74334;BME280;62753;40.394;-80.022;2023-04-05T09:51:51;97173.53;;;19.55;42.88
74334;BME280;62753;40.394;-80.022;2023-04-05T09:54:17;97171.18;;;19.78;43.59
74334;BME280;62753;40.394;-80.022;2023-04-05T09:56:53;97169.16;;;19.76;43.41
74334;BME280;62753;40.394;-80.022;2023-04-05T09:59:09;97165.52;;;19.42;44.24
74334;BME280;62753;40.394;-80.022;2023-04-05T10:01:33;97169.08;;;19.76;43.83
74334;BME280;62753;40.394;-80.022;2023-04-05T10:03:58;97171.99;;;20.05;42.96
74334;BME280;62753;40.394;-80.022;2023-04-05T10:06:27;97171.52;;;19.53;43.93
74334;BME280;62753;40.394;-80.022;2023-04-05T10:08:49;97170.94;;;19.50;44.26
74334;BME280;62753;40.394;-80.022;2023-04-05T10:11:17;97178.62;;;19.56;44.77
74334;BME280;62753;40.394;-80.022;2023-04-05T10:13:40;97180.04;;;19.33;44.87
74334;BME280;62753;40.394;-80.022;2023-04-05T10:16:08;97185.25;;;19.26;44.73
74334;BME280;62753;40.394;-80.022;2023-04-05T10:18:38;97182.49;;;19.37;44.72
74334;BME280;62753;40.394;-80.022;2023-04-05T10:20:57;97182.74;;;19.24;45.37
74334;BME280;62753;40.394;-80.022;2023-04-05T10:23:24;97186.70;;;19.28;44.92
74334;BME280;62753;40.394;-80.022;2023-04-05T10:25:52;97194.00;;;19.09;45.08
74334;BME280;62753;40.394;-80.022;2023-04-05T10:28:21;97196.30;;;19.59;44.57
74334;BME280;62753;40.394;-80.022;2023-04-05T10:30:40;97195.71;;;19.40;43.66
74334;BME280;62753;40.394;-80.022;2023-04-05T10:33:12;97194.65;;;19.62;44.53
74334;BME280;62753;40.394;-80.022;2023-04-05T10:35:35;97191.50;;;19.76;44.19
74334;BME280;62753;40.394;-80.022;2023-04-05T10:38:09;97194.43;;;19.53;45.21
74334;BME280;62753;40.394;-80.022;2023-04-05T10:40:21;97194.78;;;19.23;44.44
74334;BME280;62753;40.394;-80.022;2023-04-05T10:42:48;97196.50;;;19.75;44.16
74334;BME280;62753;40.394;-80.022;2023-04-05T10:45:13;97198.27;;;19.21;44.11
74334;BME280;62753;40.394;-80.022;2023-04-05T10:47:43;97199.49;;;19.68;44.08
74334;BME280;62753;40.394;-80.022;2023-04-05T10:50:07;97200.53;;;19.76;43.86
74334;BME280;62753;40.394;-80.022;2023-04-05T10:52:29;97195.25;;;19.39;44.23
74334;BME280;62753;40.394;-80.022;2023-04-05T10:54:54;97198.81;;;19.89;43.71
74334;BME280;62753;40.394;-80.022;2023-04-05T10:57:19;97199.64;;;19.91;43.70
74334;BME280;62753;40.394;-80.022;2023-04-05T10:59:46;97197.45;;;20.06;43.70
74334;BME280;62753;40.394;-80.022;2023-04-05T11:02:10;97199.21;;;19.57;44.15
74334;BME280;62753;40.394;-80.022;2023-04-05T11:04:36;97205.09;;;19.69;44.00
74334;BME280;62753;40.394;-80.022;2023-04-05T11:07:11;97209.77;;;19.66;43.68
74334;BME280;62753;40.394;-80.022;2023-04-05T11:09:27;97214.10;;;19.71;44.66
74334;BME280;62753;40.394;-80.022;2023-04-05T11:11:52;97222.88;;;20.28;42.91
74334;BME280;62753;40.394;-80.022;2023-04-05T11:14:21;97226.63;;;20.00;42.92
74334;BME280;62753;40.394;-80.022;2023-04-05T11:16:46;97228.56;;;19.65;43.69
74334;BME280;62753;40.394;-80.022;2023-04-05T11:19:09;97230.60;;;20.07;43.69
74334;BME280;62753;40.394;-80.022;2023-04-05T11:21:35;97234.55;;;20.22;43.18
74334;BME280;62753;40.394;-80.022;2023-04-05T11:24:03;97239.35;;;19.79;43.58
74334;BME280;62753;40.394;-80.022;2023-04-05T11:26:31;97239.48;;;19.99;44.54
74334;BME280;62753;40.394;-80.022;2023-04-05T11:28:57;97249.26;;;19.57;44.56
74334;BME280;62753;40.394;-80.022;2023-04-05T11:31:19;97247.95;;;19.90;43.90
74334;BME280;62753;40.394;-80.022;2023-04-05T11:33:54;97248.47;;;20.33;43.74
74334;BME280;62753;40.394;-80.022;2023-04-05T11:36:08;97240.80;;;20.10;44.33
74334;BME280;62753;40.394;-80.022;2023-04-05T11:38:34;97245.75;;;20.65;43.08
74334;BME280;62753;40.394;-80.022;2023-04-05T11:41:06;97247.93;;;20.51;42.92
74334;BME280;62753;40.394;-80.022;2023-04-05T11:43:27;97247.66;;;20.37;43.29
74334;BME280;62753;40.394;-80.022;2023-04-05T11:45:50;97247.29;;;20.28;44.07
74334;BME280;62753;40.394;-80.022;2023-04-05T11:48:17;97246.29;;;20.25;43.12
74334;BME280;62753;40.394;-80.022;2023-04-05T11:50:41;97248.24;;;20.76;42.08
74334;BME280;62753;40.394;-80.022;2023-04-05T11:53:08;97247.87;;;21.14;41.39
74334;BME280;62753;40.394;-80.022;2023-04-05T11:55:32;97250.48;;;21.53;40.77
74334;BME280;62753;40.394;-80.022;2023-04-05T11:57:58;97252.19;;;21.41;41.16
74334;BME280;62753;40.394;-80.022;2023-04-05T12:00:23;97250.76;;;21.60;41.12
74334;BME280;62753;40.394;-80.022;2023-04-05T12:02:49;97248.16;;;21.34;41.61
74334;BME280;62753;40.394;-80.022;2023-04-05T12:05:14;97250.01;;;21.91;40.77
74334;BME280;62753;40.394;-80.022;2023-04-05T12:07:39;97247.86;;;21.55;40.86
74334;BME280;62753;40.394;-80.022;2023-04-05T12:10:07;97245.43;;;21.40;41.38
74334;BME280;62753;40.394;-80.022;2023-04-05T12:12:35;97249.43;;;21.14;41.99
74334;BME280;62753;40.394;-80.022;2023-04-05T12:14:58;97257.35;;;20.64;43.72
74334;BME280;62753;40.394;-80.022;2023-04-05T12:19:47;97251.44;;;21.16;42.26
74334;BME280;62753;40.394;-80.022;2023-04-05T12:22:12;97258.31;;;21.74;41.50
74334;BME280;62753;40.394;-80.022;2023-04-05T12:24:37;97263.35;;;21.71;41.35
74334;BME280;62753;40.394;-80.022;2023-04-05T12:27:02;97264.63;;;21.20;42.39
74334;BME280;62753;40.394;-80.022;2023-04-05T12:29:28;97258.13;;;21.30;41.46
74334;BME280;62753;40.394;-80.022;2023-04-05T12:31:54;97257.83;;;22.43;40.56
74334;BME280;62753;40.394;-80.022;2023-04-05T12:34:23;97257.62;;;22.22;39.82
74334;BME280;62753;40.394;-80.022;2023-04-05T12:36:45;97251.44;;;21.61;41.13
74334;BME280;62753;40.394;-80.022;2023-04-05T12:39:09;97248.04;;;21.99;41.36